createdAt,value
2023-05-20T00:00:50.841Z,63.47
2023-05-20T00:01:50.828Z,64.44
2023-05-20T00:02:50.901Z,65.27
2023-05-20T00:03:50.960Z,67.96
2023-05-20T00:04:50.833Z,63.15
2023-05-20T00:05:50.778Z,64.06
2023-05-20T00:06:50.774Z,66.25
2023-05-20T00:07:50.766Z,62.46
2023-05-20T00:08:50.753Z,63.70
2023-05-20T00:09:50.758Z,62.75
2023-05-20T00:10:50.733Z,65.24
2023-05-20T00:11:50.724Z,66.20
2023-05-20T00:12:50.725Z,67.01
2023-05-20T00:13:50.782Z,65.75
2023-05-20T00:14:53.102Z,67.28
2023-05-20T00:15:50.692Z,66.06
2023-05-20T00:16:50.771Z,64.43
2023-05-20T00:17:50.707Z,64.69
2023-05-20T00:18:50.710Z,65.82
2023-05-20T00:19:50.645Z,63.79
2023-05-20T00:20:50.632Z,64.32
2023-05-20T00:21:50.617Z,62.39
2023-05-20T00:22:50.622Z,63.92
2023-05-20T00:23:50.622Z,63.33
2023-05-20T00:24:50.596Z,66.75
2023-05-20T00:25:50.591Z,64.50
2023-05-20T00:26:50.571Z,65.91
2023-05-20T00:27:50.591Z,64.84
2023-05-20T00:28:50.578Z,65.39
2023-05-20T00:29:50.555Z,64.34
2023-05-20T00:30:50.534Z,65.54
2023-05-20T00:31:50.537Z,65.68
2023-05-20T00:32:50.585Z,64.49
2023-05-20T00:33:50.521Z,63.81
2023-05-20T00:34:50.499Z,64.59
2023-05-20T00:35:50.489Z,65.08
2023-05-20T00:36:50.477Z,65.35
2023-05-20T00:37:50.539Z,63.40
2023-05-20T00:38:50.456Z,62.53
2023-05-20T00:39:50.450Z,65.90
2023-05-20T00:40:50.497Z,61.91
2023-05-20T00:41:50.445Z,61.71
2023-05-20T00:42:50.441Z,65.28
2023-05-20T00:43:50.411Z,66.84
2023-05-20T00:44:50.389Z,64.22
2023-05-20T00:45:50.398Z,62.17
2023-05-20T00:46:50.407Z,63.84
2023-05-20T00:47:50.391Z,64.96
2023-05-20T00:48:50.360Z,66.50
2023-05-20T00:49:50.551Z,64.09
2023-05-20T00:50:51.349Z,65.29
2023-05-20T00:51:50.343Z,68.25
2023-05-20T00:52:50.313Z,65.03
2023-05-20T00:53:50.310Z,63.09
2023-05-20T00:54:50.293Z,64.20
2023-05-20T00:55:50.296Z,63.79
2023-05-20T00:56:50.287Z,63.08
2023-05-20T00:57:50.258Z,63.17
2023-05-20T00:58:50.255Z,65.24
2023-05-20T00:59:50.251Z,65.91
2023-05-20T01:00:50.254Z,65.31
2023-05-20T01:01:50.280Z,64.55
2023-05-20T01:02:50.297Z,67.42
2023-05-20T01:03:50.223Z,64.86
2023-05-20T01:04:50.200Z,63.83
2023-05-20T01:05:50.208Z,63.30
2023-05-20T01:06:50.172Z,67.10
2023-05-20T01:07:50.179Z,62.52
2023-05-20T01:08:50.147Z,62.87
2023-05-20T01:09:50.185Z,65.40
2023-05-20T01:10:50.158Z,64.90
2023-05-20T01:11:50.129Z,64.38
2023-05-20T01:12:50.102Z,64.27
2023-05-20T01:13:50.103Z,64.58
2023-05-20T01:14:50.125Z,64.91
2023-05-20T01:15:50.095Z,65.13
2023-05-20T01:16:50.074Z,64.43
2023-05-20T01:17:50.094Z,66.54
2023-05-20T01:18:50.099Z,65.36
2023-05-20T01:19:50.058Z,66.28
2023-05-20T01:20:50.030Z,64.22
2023-05-20T01:21:50.011Z,64.01
2023-05-20T01:22:51.011Z,63.91
2023-05-20T01:23:50.019Z,64.09
2023-05-20T01:24:51.008Z,64.24
2023-05-20T01:25:49.984Z,65.10
2023-05-20T01:26:49.980Z,63.39
2023-05-20T01:27:49.979Z,60.99
2023-05-20T01:28:49.984Z,60.91
2023-05-20T01:29:49.946Z,65.93
2023-05-20T01:30:49.924Z,62.42
2023-05-20T01:31:49.942Z,63.42
2023-05-20T01:32:49.951Z,62.94
2023-05-20T01:33:49.910Z,63.40
2023-05-20T01:34:49.894Z,63.72
2023-05-20T01:35:49.882Z,63.80
2023-05-20T01:36:49.867Z,64.21
2023-05-20T01:37:49.868Z,64.95
2023-05-20T01:38:49.860Z,64.37
2023-05-20T01:39:49.837Z,65.14
2023-05-20T01:40:49.832Z,64.05
2023-05-20T01:41:49.822Z,64.82
2023-05-20T01:42:49.829Z,62.64
2023-05-20T01:43:49.796Z,64.55
2023-05-20T01:44:49.796Z,64.84
2023-05-20T01:45:49.778Z,62.26
2023-05-20T01:46:49.828Z,64.30
2023-05-20T01:47:49.812Z,64.67
2023-05-20T01:48:49.766Z,65.70
2023-05-20T01:49:49.752Z,63.45
2023-05-20T01:50:49.737Z,65.61
2023-05-20T01:51:49.708Z,65.81
2023-05-20T01:52:49.701Z,64.55
2023-05-20T01:53:49.749Z,65.89
2023-05-20T01:54:49.684Z,62.78
2023-05-20T01:55:49.672Z,64.52
2023-05-20T01:56:49.680Z,63.43
2023-05-20T01:57:49.665Z,66.87
2023-05-20T01:58:49.641Z,64.12
2023-05-20T01:59:49.629Z,62.67
2023-05-20T02:00:49.653Z,62.02
2023-05-20T02:01:49.685Z,63.88
2023-05-20T02:02:49.739Z,65.40
2023-05-20T02:03:49.598Z,65.25
2023-05-20T02:04:49.584Z,62.58
2023-05-20T02:05:49.657Z,62.37
2023-05-20T02:06:49.588Z,59.90
2023-05-20T02:07:49.564Z,63.95
2023-05-20T02:08:49.537Z,63.17
2023-05-20T02:09:49.528Z,63.13
2023-05-20T02:10:49.543Z,64.68
2023-05-20T02:11:49.516Z,65.05
2023-05-20T02:12:49.533Z,63.29
2023-05-20T02:13:49.491Z,65.69
2023-05-20T02:14:49.519Z,63.76
2023-05-20T02:15:49.492Z,66.83
2023-05-20T02:16:49.518Z,64.68
2023-05-20T02:17:49.488Z,64.08
2023-05-20T02:18:49.471Z,63.17
2023-05-20T02:19:49.443Z,63.18
2023-05-20T02:20:49.415Z,65.56
2023-05-20T02:21:49.413Z,63.88
2023-05-20T02:22:49.405Z,63.98
2023-05-20T02:23:49.399Z,63.89
2023-05-20T02:24:49.412Z,63.47
2023-05-20T02:25:49.371Z,63.17
2023-05-20T02:26:49.384Z,61.86
2023-05-20T02:27:49.359Z,67.38
2023-05-20T02:28:49.353Z,62.84
2023-05-20T02:29:49.366Z,64.68
2023-05-20T02:30:49.324Z,65.51
2023-05-20T02:31:49.341Z,64.65
2023-05-20T02:32:49.320Z,62.45
2023-05-20T02:33:49.379Z,61.52
2023-05-20T02:34:49.290Z,63.47
2023-05-20T02:35:49.273Z,62.48
2023-05-20T02:36:49.262Z,65.07
2023-05-20T02:37:49.252Z,65.43
2023-05-20T02:38:49.259Z,64.09
2023-05-20T02:39:49.239Z,62.69
2023-05-20T02:40:49.233Z,63.96
2023-05-20T02:41:49.216Z,67.49
2023-05-20T02:42:49.234Z,66.79
2023-05-20T02:43:49.224Z,65.08
2023-05-20T02:44:49.188Z,64.78
2023-05-20T02:45:49.181Z,67.12
2023-05-20T02:46:49.158Z,67.67
2023-05-20T02:47:49.188Z,65.73
2023-05-20T02:48:49.140Z,68.23
2023-05-20T02:49:49.132Z,68.47
2023-05-20T02:50:49.127Z,64.94
2023-05-20T02:51:49.121Z,66.44
2023-05-20T02:52:49.111Z,66.11
2023-05-20T02:53:49.107Z,68.21
2023-05-20T02:54:49.085Z,67.50
2023-05-20T02:55:49.073Z,68.27
2023-05-20T02:56:49.102Z,67.35
2023-05-20T02:57:49.072Z,66.81
2023-05-20T02:58:49.073Z,68.56
2023-05-20T02:59:49.041Z,66.86
2023-05-20T03:00:49.024Z,68.87
2023-05-20T03:01:49.054Z,68.06
2023-05-20T03:02:49.025Z,64.74
2023-05-20T03:03:48.993Z,64.36
2023-05-20T03:04:49.024Z,66.15
2023-05-20T03:05:49.972Z,67.39
2023-05-20T03:06:48.990Z,65.03
2023-05-20T03:07:48.976Z,62.96
2023-05-20T03:08:48.954Z,64.19
2023-05-20T03:09:48.927Z,66.18
2023-05-20T03:10:48.935Z,66.03
2023-05-20T03:11:48.934Z,66.56
2023-05-20T03:12:48.920Z,66.87
2023-05-20T03:13:48.905Z,66.77
2023-05-20T03:14:48.878Z,65.85
2023-05-20T03:15:48.978Z,66.00
2023-05-20T03:16:48.869Z,64.21
2023-05-20T03:17:48.891Z,66.56
2023-05-20T03:18:48.885Z,67.35
2023-05-20T03:19:48.839Z,66.95
2023-05-20T03:20:48.924Z,66.41
2023-05-20T03:21:48.848Z,66.19
2023-05-20T03:22:48.807Z,64.70
2023-05-20T03:23:48.789Z,66.58
2023-05-20T03:24:48.833Z,66.24
2023-05-20T03:25:48.794Z,68.79
2023-05-20T03:26:48.765Z,66.99
2023-05-20T03:27:48.759Z,65.68
2023-05-20T03:28:48.745Z,66.92
2023-05-20T03:29:48.752Z,68.10
2023-05-20T03:30:48.734Z,66.83
2023-05-20T03:31:48.797Z,66.71
2023-05-20T03:32:48.768Z,64.47
2023-05-20T03:33:48.698Z,66.94
2023-05-20T03:34:48.698Z,65.03
2023-05-20T03:35:48.693Z,64.97
2023-05-20T03:36:48.679Z,67.13
2023-05-20T03:37:48.667Z,67.62
2023-05-20T03:38:48.666Z,69.20
2023-05-20T03:39:48.657Z,68.62
2023-05-20T03:40:48.621Z,69.46
2023-05-20T03:41:48.620Z,64.22
2023-05-20T03:42:48.612Z,67.29
2023-05-20T03:43:48.613Z,69.01
2023-05-20T03:44:48.582Z,67.75
2023-05-20T03:45:48.581Z,65.93
2023-05-20T03:46:48.608Z,66.61
2023-05-20T03:47:48.652Z,65.78
2023-05-20T03:48:48.568Z,67.09
2023-05-20T03:49:48.540Z,67.66
2023-05-20T03:50:48.547Z,68.81
2023-05-20T03:51:48.551Z,67.77
2023-05-20T03:52:48.535Z,66.88
2023-05-20T03:53:48.518Z,69.22
2023-05-20T03:54:48.484Z,67.57
2023-05-20T03:55:48.488Z,68.17
2023-05-20T03:56:48.473Z,68.36
2023-05-20T03:57:48.495Z,68.74
2023-05-20T03:58:48.453Z,66.21
2023-05-20T03:59:48.438Z,67.40
2023-05-20T04:00:48.433Z,64.81
2023-05-20T04:01:48.478Z,67.25
2023-05-20T04:02:48.528Z,66.85
2023-05-20T04:03:48.438Z,66.44
2023-05-20T04:04:48.389Z,66.50
2023-05-20T04:05:48.385Z,66.97
2023-05-20T04:06:48.401Z,64.80
2023-05-20T04:07:48.376Z,68.70
2023-05-20T04:08:48.347Z,67.79
2023-05-20T04:09:48.334Z,68.49
2023-05-20T04:10:48.333Z,69.17
2023-05-20T04:11:48.337Z,68.40
2023-05-20T04:12:48.310Z,66.68
2023-05-20T04:13:48.305Z,66.03
2023-05-20T04:14:48.280Z,68.15
2023-05-20T04:15:48.285Z,66.36
2023-05-20T04:16:48.352Z,65.33
2023-05-20T04:17:48.311Z,66.84
2023-05-20T04:18:48.319Z,64.26
2023-05-20T04:19:48.245Z,68.71
2023-05-20T04:20:48.245Z,68.02
2023-05-20T04:21:48.258Z,69.58
2023-05-20T04:22:48.232Z,66.12
2023-05-20T04:23:48.211Z,66.47
2023-05-20T04:24:48.195Z,69.11
2023-05-20T04:25:49.231Z,68.16
2023-05-20T04:26:48.174Z,66.78
2023-05-20T04:27:48.167Z,68.56
2023-05-20T04:28:48.153Z,66.32
2023-05-20T04:29:48.155Z,66.46
2023-05-20T04:30:48.176Z,67.47
2023-05-20T04:31:48.152Z,66.61
2023-05-20T04:32:48.145Z,68.60
2023-05-20T04:33:48.106Z,69.33
2023-05-20T04:34:48.126Z,68.44
2023-05-20T04:35:48.111Z,71.00
2023-05-20T04:36:48.160Z,66.89
2023-05-20T04:37:48.150Z,67.25
2023-05-20T04:38:48.053Z,66.27
2023-05-20T04:39:48.078Z,68.15
2023-05-20T04:40:48.024Z,67.10
2023-05-20T04:41:48.021Z,67.93
2023-05-20T04:42:48.000Z,66.49
2023-05-20T04:43:49.001Z,64.90
2023-05-20T04:44:48.047Z,67.84
2023-05-20T04:45:48.007Z,66.83
2023-05-20T04:46:48.000Z,68.70
2023-05-20T04:47:47.973Z,66.63
2023-05-20T04:48:48.160Z,67.54
2023-05-20T04:49:47.945Z,68.82
2023-05-20T04:50:48.933Z,70.36
2023-05-20T04:51:47.919Z,68.76
2023-05-20T04:52:47.914Z,67.44
2023-05-20T04:53:47.917Z,69.35
2023-05-20T04:54:47.897Z,66.49
2023-05-20T04:55:47.876Z,66.23
2023-05-20T04:56:47.908Z,68.91
2023-05-20T04:57:47.864Z,69.11
2023-05-20T04:58:47.876Z,69.48
2023-05-20T04:59:47.839Z,69.65
2023-05-20T05:00:47.834Z,68.66
2023-05-20T05:01:47.869Z,67.43
2023-05-20T05:02:47.878Z,67.54
2023-05-20T05:03:47.810Z,65.76
2023-05-20T05:04:47.835Z,67.73
2023-05-20T05:05:47.800Z,67.72
2023-05-20T05:06:47.776Z,65.88
2023-05-20T05:07:47.823Z,67.21
2023-05-20T05:08:47.755Z,67.80
2023-05-20T05:09:47.745Z,66.87
2023-05-20T05:10:47.735Z,66.79
2023-05-20T05:11:47.749Z,68.25
2023-05-20T05:12:47.739Z,68.24
2023-05-20T05:13:47.703Z,66.46
2023-05-20T05:14:47.696Z,67.75
2023-05-20T05:15:47.705Z,67.90
2023-05-20T05:16:47.711Z,68.93
2023-05-20T05:17:47.687Z,67.85
2023-05-20T05:18:47.668Z,67.83
2023-05-20T05:19:47.643Z,64.92
2023-05-20T05:20:47.632Z,67.13
2023-05-20T05:21:47.697Z,67.49
2023-05-20T05:22:47.612Z,66.47
2023-05-20T05:23:47.597Z,67.15
2023-05-20T05:24:47.593Z,67.14
2023-05-20T05:25:47.634Z,67.31
2023-05-20T05:26:47.619Z,65.55
2023-05-20T05:27:47.567Z,66.98
2023-05-20T05:28:47.553Z,68.32
2023-05-20T05:29:47.538Z,67.01
2023-05-20T05:30:47.542Z,66.85
2023-05-20T05:31:47.535Z,66.12
2023-05-20T05:32:47.621Z,67.11
2023-05-20T05:33:47.500Z,67.58
2023-05-20T05:34:47.500Z,68.07
2023-05-20T05:35:47.522Z,67.86
2023-05-20T05:36:47.471Z,67.28
2023-05-20T05:37:47.458Z,67.34
2023-05-20T05:38:47.444Z,65.11
2023-05-20T05:39:47.577Z,65.33
2023-05-20T05:41:14.362Z,65.34
2023-05-20T05:41:47.417Z,67.45
2023-05-20T05:42:47.428Z,65.48
2023-05-20T05:43:47.401Z,67.80
2023-05-20T05:44:47.448Z,67.19
2023-05-20T05:45:47.376Z,66.68
2023-05-20T05:46:47.410Z,67.12
2023-05-20T05:47:47.390Z,66.50
2023-05-20T05:48:47.403Z,66.50
2023-05-20T05:49:47.359Z,66.56
2023-05-20T05:50:47.331Z,68.71
2023-05-20T05:51:47.316Z,66.70
2023-05-20T05:52:47.297Z,67.02
2023-05-20T05:53:47.318Z,65.59
2023-05-20T05:54:47.328Z,66.48
2023-05-20T05:55:47.270Z,65.31
2023-05-20T05:56:47.273Z,69.10
2023-05-20T05:57:47.254Z,68.55
2023-05-20T05:58:47.278Z,66.08
2023-05-20T05:59:47.237Z,65.43
2023-05-20T06:00:48.245Z,65.91
2023-05-20T06:01:47.297Z,65.19
2023-05-20T06:02:47.454Z,65.99
2023-05-20T06:03:47.299Z,67.80
2023-05-20T06:04:47.182Z,67.98
2023-05-20T06:05:47.196Z,67.54
2023-05-20T06:06:47.163Z,67.08
2023-05-20T06:07:47.185Z,66.74
2023-05-20T06:08:47.161Z,67.44
2023-05-20T06:09:47.142Z,68.29
2023-05-20T06:10:47.132Z,66.41
2023-05-20T06:11:47.125Z,66.91
2023-05-20T06:12:47.147Z,66.85
2023-05-20T06:13:47.111Z,69.36
2023-05-20T06:14:47.089Z,66.22
2023-05-20T06:15:47.085Z,68.00
2023-05-20T06:16:47.075Z,65.57
2023-05-20T06:17:47.098Z,66.33
2023-05-20T06:18:47.117Z,66.11
2023-05-20T06:19:47.036Z,68.89
2023-05-20T06:20:47.016Z,68.62
2023-05-20T06:21:47.024Z,65.94
2023-05-20T06:22:47.042Z,65.34
2023-05-20T06:23:47.007Z,65.66
2023-05-20T06:24:46.992Z,65.36
2023-05-20T06:25:46.981Z,65.89
2023-05-20T06:26:46.977Z,69.58
2023-05-20T06:27:46.985Z,66.16
2023-05-20T06:28:46.949Z,68.99
2023-05-20T06:29:46.937Z,67.51
2023-05-20T06:30:46.946Z,66.96
2023-05-20T06:31:46.931Z,67.46
2023-05-20T06:32:46.925Z,65.67
2023-05-20T06:33:46.894Z,65.02
2023-05-20T06:34:46.881Z,66.27
2023-05-20T06:35:46.887Z,67.35
2023-05-20T06:36:46.877Z,66.05
2023-05-20T06:37:46.869Z,67.28
2023-05-20T06:38:46.852Z,64.97
2023-05-20T06:39:46.835Z,65.74
2023-05-20T06:40:46.841Z,65.05
2023-05-20T06:41:46.807Z,65.44
2023-05-20T06:42:46.804Z,66.82
2023-05-20T06:43:46.806Z,64.50
2023-05-20T06:44:46.793Z,66.11
2023-05-20T06:45:46.780Z,64.39
2023-05-20T06:46:46.896Z,64.55
2023-05-20T06:47:46.813Z,66.03
2023-05-20T06:48:46.769Z,69.13
2023-05-20T06:49:47.742Z,67.44
2023-05-20T06:50:47.768Z,65.97
2023-05-20T06:51:46.716Z,66.52
2023-05-20T06:52:46.701Z,66.50
2023-05-20T06:53:46.692Z,66.42
2023-05-20T06:54:46.716Z,63.81
2023-05-20T06:55:46.678Z,65.03
2023-05-20T06:56:46.665Z,66.28
2023-05-20T06:57:46.653Z,65.07
2023-05-20T06:58:46.642Z,62.88
2023-05-20T06:59:46.650Z,64.83
2023-05-20T07:00:46.615Z,62.28
2023-05-20T07:01:46.690Z,62.94
2023-05-20T07:02:46.701Z,61.71
2023-05-20T07:03:46.654Z,61.68
2023-05-20T07:04:46.635Z,63.55
2023-05-20T07:05:46.585Z,59.77
2023-05-20T07:06:46.561Z,62.24
2023-05-20T07:07:46.553Z,62.29
2023-05-20T07:08:46.552Z,61.20
2023-05-20T07:09:46.533Z,62.50
2023-05-20T07:10:46.524Z,61.90
2023-05-20T07:11:46.517Z,62.00
2023-05-20T07:12:46.500Z,63.51
2023-05-20T07:13:47.517Z,62.71
2023-05-20T07:14:46.475Z,62.47
2023-05-20T07:15:46.521Z,63.80
2023-05-20T07:16:46.465Z,62.27
2023-05-20T07:17:46.496Z,61.81
2023-05-20T07:18:46.477Z,61.47
2023-05-20T07:19:46.433Z,61.16
2023-05-20T07:20:46.423Z,63.25
2023-05-20T07:21:46.408Z,61.25
2023-05-20T07:22:46.456Z,62.16
2023-05-20T07:23:46.390Z,62.41
2023-05-20T07:24:46.386Z,63.57
2023-05-20T07:25:46.376Z,62.80
2023-05-20T07:26:46.353Z,61.78
2023-05-20T07:27:46.361Z,61.85
2023-05-20T07:28:46.342Z,62.70
2023-05-20T07:29:46.333Z,62.88
2023-05-20T07:30:46.321Z,63.33
2023-05-20T07:31:46.360Z,64.04
2023-05-20T07:32:46.395Z,63.70
2023-05-20T07:33:46.298Z,64.25
2023-05-20T07:34:46.289Z,64.42
2023-05-20T07:35:46.277Z,66.15
2023-05-20T07:36:46.289Z,63.18
2023-05-20T07:37:46.252Z,63.21
2023-05-20T07:39:00.539Z,64.25
2023-05-20T07:39:48.272Z,64.76
2023-05-20T07:40:46.229Z,63.30
2023-05-20T07:41:46.225Z,63.20
2023-05-20T07:42:46.198Z,64.14
2023-05-20T07:43:46.199Z,63.13
2023-05-20T07:44:46.183Z,62.87
2023-05-20T07:45:46.266Z,62.40
2023-05-20T07:46:46.187Z,64.12
2023-05-20T07:47:46.252Z,64.99
2023-05-20T07:48:46.149Z,65.47
2023-05-20T07:49:46.142Z,63.84
2023-05-20T07:50:46.169Z,66.43
2023-05-20T07:51:46.132Z,65.73
2023-05-20T07:52:56.105Z,65.99
2023-05-20T07:53:48.122Z,66.62
2023-05-20T07:54:46.077Z,67.85
2023-05-20T07:55:46.078Z,65.08
2023-05-20T07:56:46.062Z,64.24
2023-05-20T07:57:46.041Z,63.85
2023-05-20T07:58:46.035Z,67.18
2023-05-20T07:59:46.051Z,67.43
2023-05-20T08:00:46.045Z,64.76
2023-05-20T08:01:46.008Z,65.06
2023-05-20T08:02:46.090Z,66.36
2023-05-20T08:03:46.091Z,66.98
2023-05-20T08:04:46.119Z,67.25
2023-05-20T08:05:46.000Z,66.23
2023-05-20T08:06:45.962Z,65.96
2023-05-20T08:07:45.961Z,65.91
2023-05-20T08:08:45.963Z,66.32
2023-05-20T08:09:45.953Z,67.63
2023-05-20T08:10:45.934Z,65.91
2023-05-20T08:11:47.331Z,66.35
2023-05-20T08:12:45.904Z,65.84
2023-05-20T08:13:45.909Z,67.20
2023-05-20T08:14:45.881Z,66.89
2023-05-20T08:15:45.876Z,65.34
2023-05-20T08:16:45.885Z,66.01
2023-05-20T08:17:45.911Z,67.04
2023-05-20T08:18:45.892Z,65.99
2023-05-20T08:19:45.846Z,68.96
2023-05-20T08:20:45.843Z,65.13
2023-05-20T08:21:45.803Z,64.86
2023-05-20T08:22:45.819Z,66.79
2023-05-20T08:23:45.801Z,65.96
2023-05-20T08:24:45.769Z,66.83
2023-05-20T08:25:45.768Z,65.49
2023-05-20T08:26:45.749Z,67.22
2023-05-20T08:27:45.761Z,66.71
2023-05-20T08:28:45.734Z,66.97
2023-05-20T08:29:45.729Z,66.94
2023-05-20T08:30:45.756Z,67.52
2023-05-20T08:31:45.714Z,68.34
2023-05-20T08:32:46.481Z,66.10
2023-05-20T08:33:46.388Z,67.62
2023-05-20T08:34:45.667Z,66.81
2023-05-20T08:35:45.670Z,65.80
2023-05-20T08:36:45.671Z,68.00
2023-05-20T08:37:45.657Z,64.42
2023-05-20T08:38:45.704Z,66.66
2023-05-20T08:39:45.623Z,66.73
2023-05-20T08:40:45.617Z,66.48
2023-05-20T08:41:45.622Z,65.78
2023-05-20T08:42:45.599Z,67.22
2023-05-20T08:43:45.611Z,66.96
2023-05-20T08:44:45.569Z,66.80
2023-05-20T08:45:45.581Z,67.09
2023-05-20T08:46:45.622Z,66.88
2023-05-20T08:47:45.600Z,67.24
2023-05-20T08:48:45.559Z,68.73
2023-05-20T08:49:45.537Z,67.64
2023-05-20T08:50:45.524Z,66.96
2023-05-20T08:51:46.516Z,66.66
2023-05-20T08:52:45.519Z,66.97
2023-05-20T08:53:45.495Z,66.80
2023-05-20T08:54:45.490Z,66.50
2023-05-20T08:55:45.481Z,64.61
2023-05-20T08:56:45.518Z,64.01
2023-05-20T08:57:45.469Z,64.67
2023-05-20T08:58:45.453Z,65.72
2023-05-20T08:59:45.460Z,66.25
2023-05-20T09:00:45.443Z,66.02
2023-05-20T09:01:45.452Z,66.81
2023-05-20T09:02:45.425Z,68.55
2023-05-20T09:03:45.390Z,66.90
2023-05-20T09:04:45.433Z,66.93
2023-05-20T09:05:45.364Z,67.05
2023-05-20T09:06:45.373Z,68.91
2023-05-20T09:07:45.354Z,66.49
2023-05-20T09:08:45.349Z,68.09
2023-05-20T09:09:45.342Z,68.11
2023-05-20T09:10:45.339Z,64.81
2023-05-20T09:11:45.331Z,66.96
2023-05-20T09:12:45.295Z,65.60
2023-05-20T09:13:45.292Z,67.07
2023-05-20T09:14:45.298Z,67.07
2023-05-20T09:15:45.309Z,67.31
2023-05-20T09:16:45.348Z,68.18
2023-05-20T09:17:45.399Z,68.38
2023-05-20T09:18:45.280Z,67.93
2023-05-20T09:19:45.238Z,69.23
2023-05-20T09:20:45.249Z,68.36
2023-05-20T09:21:45.214Z,66.75
2023-05-20T09:22:45.195Z,68.82
2023-05-20T09:23:45.205Z,67.69
2023-05-20T09:24:45.205Z,67.10
2023-05-20T09:25:45.166Z,67.93
2023-05-20T09:26:45.155Z,68.63
2023-05-20T09:27:45.164Z,67.29
2023-05-20T09:28:45.162Z,68.09
2023-05-20T09:29:45.128Z,67.89
2023-05-20T09:30:46.152Z,66.93
2023-05-20T09:31:46.164Z,66.59
2023-05-20T09:32:45.135Z,66.90
2023-05-20T09:33:45.101Z,66.76
2023-05-20T09:34:45.081Z,67.30
2023-05-20T09:35:45.093Z,66.09
2023-05-20T09:36:45.099Z,67.08
2023-05-20T09:37:45.080Z,67.36
2023-05-20T09:38:45.046Z,66.93
2023-05-20T09:39:45.037Z,67.33
2023-05-20T09:40:45.020Z,66.77
2023-05-20T09:41:45.042Z,66.37
2023-05-20T09:42:45.033Z,65.80
2023-05-20T09:43:44.992Z,65.60
2023-05-20T09:44:44.983Z,64.76
2023-05-20T09:45:44.975Z,64.47
2023-05-20T09:46:44.981Z,66.42
2023-05-20T09:47:45.012Z,66.46
2023-05-20T09:48:44.943Z,65.36
2023-05-20T09:49:44.986Z,66.63
2023-05-20T09:50:44.922Z,68.22
2023-05-20T09:51:44.914Z,67.64
2023-05-20T09:52:44.910Z,66.15
2023-05-20T09:53:44.925Z,64.39
2023-05-20T09:54:44.931Z,64.29
2023-05-20T09:55:44.916Z,64.94
2023-05-20T09:56:44.881Z,66.39
2023-05-20T09:57:44.862Z,65.25
2023-05-20T09:58:44.861Z,64.78
2023-05-20T09:59:44.846Z,65.39
2023-05-20T10:00:44.840Z,65.91
2023-05-20T10:01:44.834Z,63.22
2023-05-20T10:02:44.909Z,65.52
2023-05-20T10:03:44.927Z,64.17
2023-05-20T10:04:44.785Z,65.87
2023-05-20T10:05:44.805Z,64.98
2023-05-20T10:06:44.763Z,67.04
2023-05-20T10:07:44.749Z,64.42
2023-05-20T10:08:44.747Z,64.71
2023-05-20T10:09:44.746Z,65.75
2023-05-20T10:10:44.741Z,65.69
2023-05-20T10:11:44.720Z,66.48
2023-05-20T10:12:44.738Z,67.19
2023-05-20T10:13:44.694Z,66.11
2023-05-20T10:14:44.759Z,66.18
2023-05-20T10:15:44.709Z,65.68
2023-05-20T10:16:44.681Z,67.08
2023-05-20T10:17:44.695Z,66.88
2023-05-20T10:18:44.667Z,66.03
2023-05-20T10:19:44.644Z,65.42
2023-05-20T10:20:44.631Z,65.40
2023-05-20T10:21:44.648Z,67.03
2023-05-20T10:22:44.609Z,65.59
2023-05-20T10:23:44.609Z,67.99
2023-05-20T10:24:44.628Z,66.33
2023-05-20T10:25:44.577Z,66.01
2023-05-20T10:26:44.567Z,65.61
2023-05-20T10:27:44.549Z,65.87
2023-05-20T10:28:44.555Z,65.49
2023-05-20T10:29:44.530Z,65.71
2023-05-20T10:30:44.578Z,65.49
2023-05-20T10:31:44.516Z,65.94
2023-05-20T10:32:44.549Z,64.40
2023-05-20T10:33:44.613Z,66.44
2023-05-20T10:34:44.486Z,66.56
2023-05-20T10:35:44.473Z,66.60
2023-05-20T10:36:44.470Z,64.54
2023-05-20T10:37:44.497Z,64.81
2023-05-20T10:38:44.463Z,65.35
2023-05-20T10:39:44.447Z,65.53
2023-05-20T10:40:44.435Z,66.04
2023-05-20T10:41:44.430Z,65.18
2023-05-20T10:42:44.421Z,64.18
2023-05-20T10:43:44.438Z,64.79
2023-05-20T10:44:44.436Z,65.79
2023-05-20T10:45:44.426Z,66.39
2023-05-20T10:47:45.508Z,67.76
2023-05-20T10:48:44.393Z,66.58
2023-05-20T10:49:44.341Z,68.85
2023-05-20T10:50:44.346Z,65.96
2023-05-20T10:51:44.345Z,65.43
2023-05-20T10:52:44.340Z,65.31
2023-05-20T10:53:44.294Z,65.55
2023-05-20T10:54:44.286Z,66.24
2023-05-20T10:55:44.272Z,67.70
2023-05-20T10:56:44.279Z,65.55
2023-05-20T10:57:44.262Z,65.46
2023-05-20T10:58:44.253Z,65.55
2023-05-20T10:59:44.249Z,66.25
2023-05-20T11:00:44.253Z,64.95
2023-05-20T11:01:44.263Z,66.06
2023-05-20T11:02:44.292Z,67.40
2023-05-20T11:03:44.246Z,66.64
2023-05-20T11:04:44.204Z,65.32
2023-05-20T11:05:44.256Z,66.47
2023-05-20T11:06:44.176Z,64.61
2023-05-20T11:07:44.161Z,67.30
2023-05-20T11:08:44.151Z,66.85
2023-05-20T11:09:44.154Z,65.22
2023-05-20T11:10:44.151Z,65.54
2023-05-20T11:11:44.132Z,65.53
2023-05-20T11:12:44.151Z,65.49
2023-05-20T11:13:44.146Z,66.04
2023-05-20T11:14:44.097Z,64.23
2023-05-20T11:15:44.108Z,64.45
2023-05-20T11:16:44.151Z,64.69
2023-05-20T11:17:44.118Z,65.01
2023-05-20T11:18:44.099Z,64.42
2023-05-20T11:19:44.061Z,64.65
2023-05-20T11:20:44.079Z,64.75
2023-05-20T11:21:44.038Z,65.18
2023-05-20T11:22:44.023Z,64.07
2023-05-20T11:23:44.007Z,65.29
2023-05-20T11:24:44.015Z,64.76
2023-05-20T11:25:44.009Z,65.16
2023-05-20T11:26:43.999Z,65.37
2023-05-20T11:27:43.969Z,65.53
2023-05-20T11:28:44.001Z,67.89
2023-05-20T11:29:43.979Z,68.39
2023-05-20T11:30:43.979Z,70.87
2023-05-20T11:31:44.000Z,69.28
2023-05-20T11:32:44.025Z,64.81
2023-05-20T11:33:43.930Z,64.52
2023-05-20T11:34:43.933Z,62.39
2023-05-20T11:35:43.924Z,63.36
2023-05-20T11:36:43.896Z,64.60
2023-05-20T11:37:43.890Z,65.60
2023-05-20T11:38:43.908Z,66.46
2023-05-20T11:39:43.961Z,66.54
2023-05-20T11:40:50.600Z,64.88
2023-05-20T11:41:45.854Z,64.14
2023-05-20T11:42:43.837Z,64.72
2023-05-20T11:43:43.857Z,65.68
2023-05-20T11:44:43.815Z,65.31
2023-05-20T11:45:43.804Z,62.91
2023-05-20T11:46:43.817Z,63.62
2023-05-20T11:47:43.845Z,64.34
2023-05-20T11:48:43.830Z,64.00
2023-05-20T11:49:43.767Z,64.69
2023-05-20T11:50:43.799Z,64.00
2023-05-20T11:51:43.773Z,65.70
2023-05-20T11:52:43.762Z,63.30
2023-05-20T11:53:43.729Z,63.76
2023-05-20T11:54:43.717Z,64.70
2023-05-20T11:55:44.717Z,63.82
2023-05-20T11:56:43.720Z,63.76
2023-05-20T11:57:43.697Z,64.42
2023-05-20T11:58:43.688Z,65.59
2023-05-20T11:59:43.672Z,64.87
2023-05-20T12:01:45.760Z,64.35
2023-05-20T12:02:43.759Z,63.83
2023-05-20T12:03:43.745Z,65.68
2023-05-20T12:04:43.633Z,62.59
2023-05-20T12:05:43.663Z,64.73
2023-05-20T12:06:43.653Z,63.73
2023-05-20T12:07:43.587Z,64.11
2023-05-20T12:08:43.603Z,64.88
2023-05-20T12:09:43.565Z,64.58
2023-05-20T12:10:43.573Z,64.21
2023-05-20T12:11:43.569Z,63.45
2023-05-20T12:12:43.539Z,64.81
2023-05-20T12:13:43.537Z,64.36
2023-05-20T12:14:43.516Z,64.75
2023-05-20T12:15:43.564Z,62.97
2023-05-20T12:16:43.538Z,63.47
2023-05-20T12:17:43.555Z,64.38
2023-05-20T12:18:43.508Z,63.30
2023-05-20T12:19:43.535Z,63.26
2023-05-20T12:20:43.506Z,65.44
2023-05-20T12:21:43.463Z,63.86
2023-05-20T12:22:43.451Z,65.46
2023-05-20T12:23:43.448Z,64.87
2023-05-20T12:24:43.421Z,66.77
2023-05-20T12:25:43.429Z,63.79
2023-05-20T12:26:43.410Z,63.86
2023-05-20T12:27:43.387Z,64.85
2023-05-20T12:28:43.392Z,62.59
2023-05-20T12:29:43.392Z,63.10
2023-05-20T12:30:43.382Z,62.68
2023-05-20T12:31:43.394Z,62.11
2023-05-20T12:32:43.374Z,62.14
2023-05-20T12:33:43.342Z,62.74
2023-05-20T12:34:43.335Z,62.25
2023-05-20T12:35:43.350Z,61.77
2023-05-20T12:36:43.315Z,63.07
2023-05-20T12:37:43.298Z,63.47
2023-05-20T12:38:43.331Z,63.74
2023-05-20T12:39:43.298Z,63.04
2023-05-20T12:40:43.278Z,62.84
2023-05-20T12:41:43.248Z,64.01
2023-05-20T12:42:43.270Z,63.27
2023-05-20T12:43:43.264Z,63.60
2023-05-20T12:44:43.272Z,63.49
2023-05-20T12:45:43.235Z,63.92
2023-05-20T12:46:43.302Z,63.37
2023-05-20T12:47:43.235Z,64.72
2023-05-20T12:48:43.200Z,63.37
2023-05-20T12:49:43.186Z,62.31
2023-05-20T12:50:43.173Z,62.57
2023-05-20T12:51:43.180Z,64.20
2023-05-20T12:52:43.166Z,63.55
2023-05-20T12:53:43.154Z,62.71
2023-05-20T12:54:43.122Z,62.48